Terminal Aerodrome Forecast
Issued by NWS Twin Cities, MN

Home | Current Version | Previous Version | Graphics & Text | Print | Product List | Glossary On
Versions: 1 2 3 4 5 6 7 8 9 10 11 12 13 14
000
FTUS43 KMPX 162300
TAFEAU
TAF
KEAU 162325Z 1700/1724 34013G18KT P6SM -SN BKN015 OVC020
     FM170200 31011KT P6SM -SN OVC019
     FM172100 33005KT P6SM SCT020 BKN030=

USA.gov is the U.S. government's official web portal to all federal, state and local government web resources and services.